Time;durP1;ratioP1;P1;durP2;ratioP2;P2;SDS_P1;SDS_P2;PMS_P1;PMS_P2;Temp;Humidity;BMP_temperature;BMP_pressure;BME280_temperature;BME280_humidity;BME280_pressure;Samples;Min_cycle;Max_cycle;Signal;HPM_P1;HPM_P2
2021/06/12 00:02:10;;;;;;;10.43;7.20;;;19.80;99.90;;;;;;5052319;28;20036;-81
2021/06/12 00:04:35;;;;;;;8.68;7.28;;;19.80;99.90;;;;;;5060281;28;20048;-74
2021/06/12 00:07:01;;;;;;;8.40;7.60;;;19.70;99.90;;;;;;5052242;28;20025;-73
2021/06/12 00:09:27;;;;;;;10.70;7.45;;;19.60;99.90;;;;;;5037404;28;20025;-74
2021/06/12 00:11:54;;;;;;;7.72;6.95;;;19.60;99.90;;;;;;5039682;28;20028;-74
2021/06/12 00:14:20;;;;;;;7.68;6.97;;;19.60;99.90;;;;;;5041868;28;20034;-73
2021/06/12 00:16:46;;;;;;;7.78;7.07;;;19.50;99.90;;;;;;5044899;28;20079;-73
2021/06/12 00:19:12;;;;;;;8.20;6.95;;;19.50;99.90;;;;;;5037096;28;20044;-74
2021/06/12 00:21:38;;;;;;;13.88;8.10;;;19.40;99.90;;;;;;5037047;28;20036;-74
2021/06/12 00:24:05;;;;;;;8.45;7.60;;;19.30;99.90;;;;;;5041182;28;20029;-73
2021/06/12 00:26:31;;;;;;;7.95;7.13;;;19.30;99.90;;;;;;5032587;28;20029;-73
2021/06/12 00:28:57;;;;;;;8.77;8.02;;;19.20;99.90;;;;;;5034619;28;20493;-73
2021/06/12 00:31:22;;;;;;;8.38;7.68;;;19.20;99.90;;;;;;5038987;28;20045;-73
2021/06/12 00:33:48;;;;;;;9.10;7.68;;;19.20;99.90;;;;;;5046936;28;20053;-73
2021/06/12 00:36:13;;;;;;;8.90;8.10;;;19.20;99.90;;;;;;5050140;28;20053;-72
2021/06/12 00:38:39;;;;;;;8.90;8.00;;;19.10;99.90;;;;;;5067704;28;20041;-71
2021/06/12 00:41:09;;;;;;;9.20;8.30;;;19.10;99.90;;;;;;5058489;28;20039;-73
2021/06/12 00:43:34;;;;;;;9.32;8.27;;;19.10;99.90;;;;;;5064291;28;20020;-74
2021/06/12 00:46:03;;;;;;;14.93;9.13;;;19.00;99.90;;;;;;5047277;28;20025;-76
2021/06/12 00:48:28;;;;;;;9.68;8.05;;;19.00;99.90;;;;;;5056698;28;20485;-78
2021/06/12 00:50:55;;;;;;;9.32;8.40;;;18.90;99.90;;;;;;5049993;28;20037;-77
2021/06/12 00:53:36;;;;;;;12.55;8.65;;;18.90;99.90;;;;;;5041183;28;20047;-77
2021/06/12 00:56:04;;;;;;;12.93;11.57;;;18.90;99.90;;;;;;5047169;28;20029;-76
2021/06/12 00:58:30;;;;;;;16.83;9.10;;;18.90;99.90;;;;;;5038068;28;20104;-76
2021/06/12 01:00:56;;;;;;;10.68;9.05;;;18.90;99.90;;;;;;5046530;28;20036;-76
2021/06/12 01:03:23;;;;;;;13.23;8.80;;;18.90;99.90;;;;;;5050766;28;20475;-77
2021/06/12 01:05:49;;;;;;;11.20;8.93;;;18.90;99.90;;;;;;5037292;28;20036;-76
2021/06/12 01:08:14;;;;;;;9.70;8.32;;;18.90;99.90;;;;;;5054843;28;20025;-77
2021/06/12 01:10:40;;;;;;;9.43;7.28;;;18.90;99.90;;;;;;5058377;28;20092;-77
2021/06/12 01:13:38;;;;;;;8.35;7.63;;;18.90;99.90;;;;;;5051366;28;20055;-77
2021/06/12 01:16:29;;;;;;;8.50;7.50;;;18.90;99.90;;;;;;5055921;28;20021;-77
2021/06/12 01:18:59;;;;;;;8.68;7.97;;;18.90;99.90;;;;;;5058468;28;20033;-77
2021/06/12 01:21:40;;;;;;;9.30;8.50;;;18.90;99.90;;;;;;5046276;28;20041;-77
2021/06/12 01:24:20;;;;;;;9.15;8.25;;;19.00;99.90;;;;;;5050285;28;20628;-77
2021/06/12 01:26:58;;;;;;;9.37;7.80;;;18.90;99.90;;;;;;5020587;28;20063;-77
2021/06/12 01:29:38;;;;;;;9.05;8.18;;;18.90;99.90;;;;;;5049931;28;20037;-75
2021/06/12 01:32:06;;;;;;;9.50;8.68;;;19.00;99.90;;;;;;5047639;28;20036;-76
2021/06/12 01:34:33;;;;;;;8.63;7.93;;;18.90;99.90;;;;;;5060417;28;20052;-76
2021/06/12 01:37:01;;;;;;;9.10;8.07;;;18.80;99.90;;;;;;5070753;28;20026;-76
2021/06/12 01:39:28;;;;;;;9.80;8.88;;;18.60;99.90;;;;;;5074821;28;20021;-76
2021/06/12 01:41:58;;;;;;;9.23;8.45;;;18.50;99.90;;;;;;5053265;28;20039;-77
2021/06/12 01:44:27;;;;;;;8.85;8.05;;;18.50;99.90;;;;;;5043924;28;20052;-77
2021/06/12 01:46:53;;;;;;;11.52;9.32;;;18.40;99.90;;;;;;5034715;28;20040;-76
2021/06/12 01:49:20;;;;;;;9.98;9.02;;;18.40;99.90;;;;;;5049741;28;20033;-76
2021/06/12 01:51:47;;;;;;;9.55;8.65;;;18.40;99.90;;;;;;5046694;28;20039;-77
2021/06/12 01:54:15;;;;;;;11.18;10.07;;;18.30;99.90;;;;;;5043966;28;20565;-77
2021/06/12 01:56:43;;;;;;;10.68;8.93;;;18.30;99.90;;;;;;5033926;28;20064;-77
2021/06/12 01:59:09;;;;;;;9.85;8.88;;;18.30;99.90;;;;;;5035516;28;20120;-76
2021/06/12 02:01:37;;;;;;;9.43;8.73;;;18.30;99.90;;;;;;5036717;28;20036;-77
2021/06/12 02:04:03;;;;;;;11.27;10.27;;;18.20;99.90;;;;;;5035653;28;20032;-77
2021/06/12 02:06:30;;;;;;;12.98;10.38;;;18.20;99.90;;;;;;5049438;28;20025;-77
2021/06/12 02:08:57;;;;;;;10.63;9.02;;;18.20;99.90;;;;;;5044645;28;20039;-77
2021/06/12 02:11:25;;;;;;;11.38;9.93;;;18.20;99.90;;;;;;5046513;28;20021;-77
2021/06/12 02:13:51;;;;;;;11.35;9.45;;;18.10;99.90;;;;;;5048628;28;20013;-77
2021/06/12 02:16:21;;;;;;;12.73;9.27;;;18.10;99.90;;;;;;5048250;28;20112;-77
2021/06/12 02:18:48;;;;;;;10.45;9.32;;;18.10;99.90;;;;;;5051492;28;20431;-77
2021/06/12 02:21:16;;;;;;;11.10;9.25;;;18.10;99.90;;;;;;5053211;28;20531;-77
2021/06/12 02:23:42;;;;;;;9.65;8.85;;;18.10;99.90;;;;;;5044354;28;20040;-77
2021/06/12 02:26:08;;;;;;;10.35;9.30;;;18.00;1.00;;;;;;5040481;28;20036;-77
2021/06/12 02:28:35;;;;;;;12.13;10.65;;;18.00;1.00;;;;;;5054689;28;20035;-77
2021/06/12 02:31:05;;;;;;;12.13;10.82;;;17.90;1.00;;;;;;5054482;28;20112;-77
2021/06/12 02:33:33;;;;;;;11.15;10.10;;;17.90;1.00;;;;;;5053109;28;20484;-76
2021/06/12 02:36:01;;;;;;;10.15;9.00;;;17.90;1.00;;;;;;5035664;28;20047;-77
2021/06/12 02:38:27;;;;;;;11.30;10.05;;;17.90;1.00;;;;;;5045697;28;20030;-77
2021/06/12 02:40:53;;;;;;;12.10;9.32;;;17.90;1.00;;;;;;5045187;28;20031;-77
2021/06/12 02:43:18;;;;;;;11.05;9.95;;;17.90;1.00;;;;;;5040557;28;20099;-77
2021/06/12 02:45:44;;;;;;;10.65;9.75;;;17.80;1.00;;;;;;5033683;28;20048;-77
2021/06/12 02:48:15;;;;;;;12.15;9.35;;;17.70;1.00;;;;;;5034867;28;20056;-77
2021/06/12 02:50:43;;;;;;;13.40;10.60;;;17.70;1.00;;;;;;5033623;28;20033;-77
2021/06/12 02:53:11;;;;;;;10.70;9.75;;;17.70;1.00;;;;;;5033608;28;20026;-77
2021/06/12 02:55:40;;;;;;;9.98;9.18;;;17.70;1.00;;;;;;5041101;28;20114;-77
2021/06/12 02:58:07;;;;;;;11.43;10.43;;;17.70;1.00;;;;;;5044545;28;20489;-77
2021/06/12 03:00:35;;;;;;;10.75;9.63;;;17.70;1.00;;;;;;5052484;28;20032;-77
2021/06/12 03:03:01;;;;;;;10.82;10.02;;;17.70;1.00;;;;;;5051536;28;20481;-78
2021/06/12 03:05:30;;;;;;;11.32;10.23;;;17.60;1.00;;;;;;5044661;28;20037;-77
2021/06/12 03:07:58;;;;;;;13.13;10.85;;;17.60;1.00;;;;;;5038824;28;20035;-77
2021/06/12 03:10:26;;;;;;;10.55;9.65;;;17.50;1.00;;;;;;5045123;28;20025;-77
2021/06/12 03:12:53;;;;;;;11.85;10.52;;;17.60;1.00;;;;;;5045963;28;20513;-76
2021/06/12 03:15:20;;;;;;;10.35;9.55;;;17.70;1.00;;;;;;5039735;28;20026;-75
2021/06/12 03:17:47;;;;;;;11.40;9.68;;;17.70;1.00;;;;;;5055253;28;20081;-76
2021/06/12 03:20:16;;;;;;;11.18;9.98;;;17.50;1.00;;;;;;5058258;28;20033;-77
2021/06/12 03:22:45;;;;;;;11.63;10.57;;;17.60;1.00;;;;;;5051144;28;20056;-75
2021/06/12 03:25:12;;;;;;;10.85;9.85;;;17.50;1.00;;;;;;5054212;28;20055;-76
2021/06/12 03:27:38;;;;;;;10.52;9.63;;;17.50;1.00;;;;;;5053617;28;20040;-77
2021/06/12 03:30:05;;;;;;;12.07;10.90;;;17.40;1.00;;;;;;5068857;28;20033;-76
2021/06/12 03:32:30;;;;;;;11.23;10.05;;;17.30;1.00;;;;;;5067547;28;20036;-76
2021/06/12 03:34:57;;;;;;;12.30;11.13;;;17.30;1.00;;;;;;5074111;28;20060;-76
2021/06/12 03:37:24;;;;;;;11.27;10.25;;;17.30;1.00;;;;;;5053948;28;20060;-76
2021/06/12 03:39:50;;;;;;;10.52;9.65;;;17.30;1.00;;;;;;5050700;28;20018;-74
2021/06/12 03:42:16;;;;;;;10.88;9.77;;;17.40;1.00;;;;;;5056302;28;20032;-76
2021/06/12 03:44:44;;;;;;;10.98;9.80;;;17.40;1.00;;;;;;5053722;28;20504;-75
2021/06/12 03:47:11;;;;;;;11.18;10.02;;;17.40;1.00;;;;;;5062402;28;20021;-77
2021/06/12 03:49:37;;;;;;;10.82;9.57;;;17.40;1.00;;;;;;5054540;28;20503;-76
2021/06/12 03:52:03;;;;;;;11.82;10.63;;;17.40;1.00;;;;;;5047163;28;20032;-76
2021/06/12 03:54:30;;;;;;;10.95;9.40;;;17.40;1.00;;;;;;5051690;28;20032;-76
2021/06/12 03:56:57;;;;;;;13.20;10.00;;;17.50;1.00;;;;;;5039807;28;20037;-77
2021/06/12 03:59:23;;;;;;;11.43;9.95;;;17.50;1.00;;;;;;5036108;28;20038;-77
2021/06/12 04:01:49;;;;;;;10.60;9.65;;;17.60;1.00;;;;;;5046808;28;20033;-77
2021/06/12 04:04:15;;;;;;;14.02;9.60;;;17.60;1.00;;;;;;5052164;28;20033;-76
2021/06/12 04:06:41;;;;;;;10.30;9.23;;;17.60;1.00;;;;;;5055646;28;20056;-77
2021/06/12 04:09:06;;;;;;;10.40;9.50;;;17.60;1.00;;;;;;5054789;28;20488;-76
2021/06/12 04:11:32;;;;;;;14.57;10.90;;;17.60;1.00;;;;;;5053258;28;20094;-77
2021/06/12 04:13:59;;;;;;;13.65;10.23;;;17.60;1.00;;;;;;5052337;28;20032;-77
2021/06/12 04:16:25;;;;;;;11.40;10.30;;;17.70;1.00;;;;;;5036761;28;20122;-77
2021/06/12 04:18:51;;;;;;;11.85;10.40;;;17.70;1.00;;;;;;5054832;28;20056;-76
2021/06/12 04:21:16;;;;;;;11.10;9.60;;;17.70;1.00;;;;;;5060897;28;20044;-75
2021/06/12 04:23:42;;;;;;;13.88;9.27;;;17.70;1.00;;;;;;5060682;28;20032;-77
2021/06/12 04:26:08;;;;;;;14.38;10.07;;;17.80;1.00;;;;;;5056824;28;20417;-77
2021/06/12 04:28:34;;;;;;;13.20;9.95;;;17.80;1.00;;;;;;5052831;28;20040;-77
2021/06/12 04:30:59;;;;;;;15.82;9.90;;;17.80;1.00;;;;;;5037158;28;20454;-77
2021/06/12 04:33:25;;;;;;;14.90;9.95;;;17.90;1.00;;;;;;5040358;28;20397;-76
2021/06/12 04:35:51;;;;;;;15.05;10.18;;;18.00;1.00;;;;;;5050336;28;20028;-76
2021/06/12 04:38:16;;;;;;;10.82;9.82;;;18.40;99.90;;;;;;5047966;28;20104;-76
2021/06/12 04:40:42;;;;;;;12.20;9.02;;;18.80;99.90;;;;;;5062124;28;20724;-76
2021/06/12 04:43:09;;;;;;;10.23;9.32;;;19.00;99.90;;;;;;5058089;28;20024;-76
2021/06/12 04:45:35;;;;;;;10.10;8.60;;;19.10;99.90;;;;;;5044269;28;20175;-76
2021/06/12 04:48:03;;;;;;;14.77;10.10;;;19.20;99.90;;;;;;5039209;28;20022;-76
2021/06/12 04:50:30;;;;;;;11.35;8.82;;;19.20;99.90;;;;;;5051474;28;20017;-76
2021/06/12 04:52:55;;;;;;;12.75;8.93;;;19.20;99.90;;;;;;5048100;28;20083;-76
2021/06/12 04:55:21;;;;;;;9.70;8.80;;;19.30;99.90;;;;;;5049606;28;20033;-75
2021/06/12 04:57:47;;;;;;;12.77;8.90;;;19.50;99.90;;;;;;5045690;28;20021;-77
2021/06/12 05:00:13;;;;;;;8.95;7.78;;;19.70;99.90;;;;;;5037468;28;20385;-77
2021/06/12 05:02:39;;;;;;;8.75;8.05;;;20.00;99.90;;;;;;5036172;28;20030;-76
2021/06/12 05:05:12;;;;;;;9.02;8.13;;;20.30;99.90;;;;;;5036243;28;20036;-77
2021/06/12 05:07:38;;;;;;;8.73;7.72;;;21.00;99.90;;;;;;5041829;28;20029;-76
2021/06/12 05:10:06;;;;;;;7.57;6.90;;;21.70;1.00;;;;;;5057376;28;20059;-77
2021/06/12 05:12:31;;;;;;;11.90;7.10;;;22.50;81.00;;;;;;5048673;28;20022;-76
2021/06/12 05:15:00;;;;;;;7.13;6.55;;;23.10;99.90;;;;;;5038121;28;20072;-76
2021/06/12 05:17:27;;;;;;;7.45;6.85;;;23.40;99.90;;;;;;5035648;28;20393;-77
2021/06/12 05:19:52;;;;;;;6.45;5.95;;;23.80;99.90;;;;;;5037990;28;20090;-76
2021/06/12 05:22:26;;;;;;;7.55;6.82;;;23.10;1.00;;;;;;5054071;28;20032;-76
2021/06/12 05:24:53;;;;;;;7.43;6.53;;;22.90;8.90;;;;;;5038958;28;20551;-77
2021/06/12 05:27:19;;;;;;;7.45;6.85;;;23.40;1.00;;;;;;5054459;28;20111;-76
2021/06/12 05:29:45;;;;;;;9.07;6.68;;;24.20;1.00;;;;;;5053128;28;20496;-77
2021/06/12 05:32:12;;;;;;;7.03;6.47;;;24.00;99.90;;;;;;5051911;28;20496;-77
2021/06/12 05:34:37;;;;;;;8.10;7.40;;;23.10;89.60;;;;;;5049830;28;20164;-77
2021/06/12 05:37:03;;;;;;;7.85;7.07;;;22.30;99.90;;;;;;5043787;28;20048;-77
2021/06/12 05:39:28;;;;;;;8.07;7.38;;;22.00;1.00;;;;;;5043131;28;20032;-77
2021/06/12 05:41:54;;;;;;;7.28;6.68;;;21.60;99.90;;;;;;5033988;28;20030;-75
2021/06/12 05:44:20;;;;;;;7.68;7.07;;;21.60;1.00;;;;;;5036786;28;20108;-76
2021/06/12 05:46:45;;;;;;;7.93;7.22;;;22.00;99.90;;;;;;5047888;28;20025;-77
2021/06/12 05:49:11;;;;;;;7.40;6.80;;;22.00;99.90;;;;;;5052443;28;20025;-77
2021/06/12 05:51:36;;;;;;;7.70;6.93;;;22.00;99.90;;;;;;5042884;28;20508;-78
2021/06/12 05:54:02;;;;;;;7.47;6.88;;;22.00;62.30;;;;;;5042173;28;20021;-76
2021/06/12 05:56:28;;;;;;;6.78;6.28;;;22.10;53.00;;;;;;5052135;28;20029;-78
2021/06/12 05:58:53;;;;;;;7.85;7.07;;;22.20;1.00;;;;;;5074340;28;20053;-75
2021/06/12 06:01:19;;;;;;;8.05;7.35;;;22.00;11.50;;;;;;5066450;28;20078;-78
2021/06/12 06:03:44;;;;;;;7.53;6.78;;;23.20;99.90;;;;;;5051508;28;20025;-77
2021/06/12 06:06:10;;;;;;;10.43;6.60;;;24.00;99.90;;;;;;5035593;28;20041;-76
2021/06/12 06:08:36;;;;;;;8.63;7.93;;;24.10;99.90;;;;;;5035378;28;20037;-77
2021/06/12 06:11:04;;;;;;;7.57;6.97;;;24.50;66.50;;;;;;5043149;28;20577;-77
2021/06/12 06:13:38;;;;;;;8.30;6.93;;;24.30;1.00;;;;;;5042820;28;20151;-77
2021/06/12 06:16:04;;;;;;;7.82;7.18;;;25.00;99.90;;;;;;5039966;28;20084;-77
2021/06/12 06:18:30;;;;;;;9.68;7.25;;;25.10;68.10;;;;;;5055702;28;20025;-76
2021/06/12 06:20:55;;;;;;;8.80;7.07;;;25.70;99.90;;;;;;5055459;28;20031;-77
2021/06/12 06:23:21;;;;;;;7.43;6.85;;;24.80;1.00;;;;;;5044855;28;20021;-77
2021/06/12 06:25:46;;;;;;;7.03;6.32;;;25.10;1.00;;;;;;5044693;28;20033;-76
2021/06/12 06:28:12;;;;;;;9.80;7.63;;;25.10;1.00;;;;;;5035240;28;20021;-77
2021/06/12 06:30:38;;;;;;;7.88;7.13;;;24.10;43.50;;;;;;5049871;28;20416;-77
2021/06/12 06:33:04;;;;;;;8.70;7.80;;;23.30;99.90;;;;;;5039991;28;20519;-76
2021/06/12 06:35:29;;;;;;;8.38;7.43;;;23.40;1.00;;;;;;5036998;28;20025;-76
2021/06/12 06:37:55;;;;;;;9.05;7.40;;;23.50;10.40;;;;;;5045810;28;20032;-78
2021/06/12 06:40:20;;;;;;;9.52;8.55;;;23.60;15.90;;;;;;5035940;28;20029;-76
2021/06/12 06:42:46;;;;;;;10.18;7.38;;;23.40;90.90;;;;;;5050887;28;20392;-74
2021/06/12 06:45:12;;;;;;;10.80;7.40;;;23.00;1.00;;;;;;5036933;28;20183;-77
2021/06/12 06:47:38;;;;;;;9.52;7.93;;;23.30;99.90;;;;;;5034943;28;20037;-78
2021/06/12 06:50:05;;;;;;;8.32;7.63;;;22.90;99.90;;;;;;5035854;28;20108;-78
2021/06/12 06:52:31;;;;;;;7.25;6.75;;;23.30;90.00;;;;;;5061076;28;20025;-76
2021/06/12 06:54:56;;;;;;;7.78;6.95;;;23.50;73.00;;;;;;5057006;28;20032;-77
2021/06/12 06:57:22;;;;;;;12.23;7.97;;;23.60;1.00;;;;;;5055645;28;20029;-78
2021/06/12 06:59:48;;;;;;;8.18;7.47;;;23.80;1.00;;;;;;5039984;28;20195;-78
2021/06/12 07:02:13;;;;;;;8.02;7.22;;;23.90;99.90;;;;;;5051438;28;20033;-77
2021/06/12 07:04:39;;;;;;;7.93;7.22;;;23.60;1.00;;;;;;5037348;28;20115;-78
2021/06/12 07:07:05;;;;;;;7.78;7.03;;;24.00;99.90;;;;;;5042956;28;20026;-76
2021/06/12 07:09:31;;;;;;;7.68;6.78;;;23.80;99.90;;;;;;5049814;28;20460;-78
2021/06/12 07:11:59;;;;;;;7.47;6.80;;;23.60;1.00;;;;;;5058548;28;20049;-79
2021/06/12 07:14:26;;;;;;;8.05;7.40;;;23.60;1.00;;;;;;5045576;28;20021;-75
2021/06/12 07:16:51;;;;;;;10.05;7.05;;;23.90;1.00;;;;;;5057010;28;20044;-78
2021/06/12 07:19:17;;;;;;;6.72;6.03;;;24.50;99.90;;;;;;5051285;28;20025;-78
2021/06/12 07:21:43;;;;;;;7.35;6.72;;;24.10;99.90;;;;;;5040625;28;20037;-78
2021/06/12 07:24:08;;;;;;;7.10;6.50;;;23.70;99.90;;;;;;5055805;28;20056;-79
2021/06/12 07:26:34;;;;;;;6.72;6.13;;;24.30;99.90;;;;;;5040767;28;20063;-78
2021/06/12 07:29:00;;;;;;;6.60;6.00;;;24.50;99.90;;;;;;5051342;28;20459;-79
2021/06/12 07:31:25;;;;;;;8.57;6.78;;;24.60;99.90;;;;;;5049578;28;20068;-79
2021/06/12 07:33:51;;;;;;;8.18;7.38;;;25.20;14.90;;;;;;5048072;28;20018;-78
2021/06/12 07:36:16;;;;;;;7.13;6.53;;;25.40;1.00;;;;;;5049020;28;20029;-79
2021/06/12 07:38:42;;;;;;;7.22;6.47;;;25.70;99.90;;;;;;5055378;28;20460;-78
2021/06/12 07:41:07;;;;;;;7.20;6.60;;;25.70;99.90;;;;;;5058397;28;20013;-77
2021/06/12 07:43:33;;;;;;;9.07;6.78;;;25.70;99.90;;;;;;5054349;28;20025;-79
2021/06/12 07:45:59;;;;;;;10.13;6.93;;;25.70;99.90;;;;;;5070551;28;20025;-80
2021/06/12 07:48:24;;;;;;;8.15;7.20;;;25.40;99.90;;;;;;5060146;28;20040;-78
2021/06/12 07:50:50;;;;;;;6.78;6.18;;;25.70;99.90;;;;;;5057729;28;20038;-80
2021/06/12 07:53:16;;;;;;;9.52;6.97;;;26.30;5.70;;;;;;5065665;28;20025;-78
2021/06/12 07:55:41;;;;;;;11.68;5.93;;;26.40;1.00;;;;;;5064919;28;20087;-80
2021/06/12 07:58:07;;;;;;;7.68;6.43;;;26.50;99.90;;;;;;5057173;28;20028;-78
2021/06/12 08:00:33;;;;;;;6.78;6.07;;;26.70;99.90;;;;;;5053548;28;20033;-77
2021/06/12 08:02:58;;;;;;;9.63;5.97;;;26.60;99.90;;;;;;5060866;28;20035;-79
2021/06/12 08:05:24;;;;;;;8.90;6.38;;;26.60;99.90;;;;;;5052470;28;20033;-79
2021/06/12 08:07:51;;;;;;;6.18;5.68;;;27.10;99.90;;;;;;5064264;28;20116;-77
2021/06/12 08:10:16;;;;;;;6.07;5.55;;;27.10;99.90;;;;;;5061987;28;20088;-77
2021/06/12 08:12:42;;;;;;;6.40;5.90;;;27.40;23.20;;;;;;5051520;28;20033;-77
2021/06/12 08:15:09;;;;;;;7.05;6.03;;;27.40;1.00;;;;;;5065133;28;20045;-77
2021/06/12 08:17:35;;;;;;;6.25;5.72;;;26.90;17.00;;;;;;5066413;28;20465;-78
2021/06/12 08:20:01;;;;;;;5.20;4.70;;;26.80;1.50;;;;;;5058777;28;20036;-78
2021/06/12 08:22:27;;;;;;;6.18;5.57;;;26.90;8.50;;;;;;5056494;28;20033;-77
2021/06/12 08:24:52;;;;;;;6.55;5.35;;;27.00;21.90;;;;;;5054211;28;20045;-78
2021/06/12 08:27:18;;;;;;;6.50;5.50;;;27.40;1.00;;;;;;5054769;28;20029;-80
2021/06/12 08:29:44;;;;;;;5.53;4.75;;;27.70;99.90;;;;;;5063469;28;20045;-78
2021/06/12 08:32:11;;;;;;;5.93;5.43;;;27.90;99.90;;;;;;5066473;28;20033;-78
2021/06/12 08:34:37;;;;;;;5.72;4.82;;;27.70;99.90;;;;;;5057752;28;20017;-76
2021/06/12 08:37:03;;;;;;;5.88;5.40;;;27.50;99.90;;;;;;5044774;28;20460;-76
2021/06/12 08:39:30;;;;;;;6.57;5.45;;;27.20;99.90;;;;;;5039501;28;20030;-76
2021/06/12 08:41:56;;;;;;;5.55;4.40;;;27.30;99.90;;;;;;5050623;28;20027;-76
2021/06/12 08:44:24;;;;;;;6.38;4.25;;;27.30;99.90;;;;;;5060096;28;20063;-76
2021/06/12 08:46:50;;;;;;;3.70;3.40;;;27.10;99.90;;;;;;5060347;28;20029;-77
2021/06/12 08:49:17;;;;;;;4.22;3.90;;;26.40;99.90;;;;;;5060134;28;20369;-76
2021/06/12 08:51:44;;;;;;;4.50;4.10;;;26.50;99.90;;;;;;5052586;28;20356;-76
2021/06/12 08:54:16;;;;;;;3.95;3.65;;;26.80;1.00;;;;;;5040339;28;20025;-76
2021/06/12 08:56:42;;;;;;;4.28;3.92;;;26.60;1.00;;;;;;5038454;28;20026;-75
2021/06/12 08:59:08;;;;;;;4.35;4.05;;;26.20;1.00;;;;;;5040732;28;20046;-75
2021/06/12 09:01:34;;;;;;;4.10;3.75;;;25.80;12.00;;;;;;5055480;28;20036;-76
2021/06/12 09:04:00;;;;;;;3.67;3.38;;;25.60;99.90;;;;;;5056477;28;20052;-76
2021/06/12 09:06:25;;;;;;;4.88;3.70;;;25.70;99.90;;;;;;5058754;28;20535;-78
2021/06/12 09:08:51;;;;;;;5.53;3.65;;;25.80;99.90;;;;;;5050623;28;20128;-77
2021/06/12 09:11:19;;;;;;;4.22;3.92;;;26.20;99.90;;;;;;5044462;28;20045;-76
2021/06/12 09:13:57;;;;;;;3.58;3.28;;;26.50;99.90;;;;;;5048685;28;20112;-71
2021/06/12 09:16:37;;;;;;;6.72;2.50;;;26.50;99.90;;;;;;5053035;28;20555;-72
2021/06/12 09:19:14;;;;;;;2.60;2.40;;;26.30;99.90;;;;;;5041596;28;20017;-71
2021/06/12 09:21:41;;;;;;;5.15;2.58;;;26.50;99.90;;;;;;5036736;28;20040;-72
2021/06/12 09:24:21;;;;;;;3.15;2.10;;;26.30;32.80;;;;;;5035730;28;20032;-73
2021/06/12 09:26:58;;;;;;;3.20;2.90;;;26.50;72.50;;;;;;5035484;28;20313;-72
2021/06/12 09:29:34;;;;;;;2.42;2.22;;;26.60;1.00;;;;;;5050661;28;20086;-73
2021/06/12 09:32:00;;;;;;;1.77;1.67;;;26.40;1.00;;;;;;5044873;28;20026;-73
2021/06/12 09:34:26;;;;;;;1.92;1.58;;;26.30;1.00;;;;;;5040216;28;20032;-71
2021/06/12 09:36:53;;;;;;;1.55;1.45;;;26.30;99.90;;;;;;5050640;28;20025;-72
2021/06/12 09:39:22;;;;;;;9.48;2.00;;;26.10;99.90;;;;;;5050929;28;20029;-73
2021/06/12 09:41:52;;;;;;;1.95;1.83;;;26.10;99.90;;;;;;5044548;28;20123;-72
2021/06/12 09:44:36;;;;;;;2.92;2.42;;;26.10;99.90;;;;;;5046641;28;20083;-73
2021/06/12 09:47:15;;;;;;;5.15;1.85;;;26.30;99.90;;;;;;5048038;28;20025;-72
2021/06/12 09:49:41;;;;;;;3.03;1.88;;;26.30;99.90;;;;;;5034875;28;20103;-72
2021/06/12 09:52:06;;;;;;;3.97;1.90;;;26.30;99.90;;;;;;5046023;28;20053;-74
2021/06/12 09:54:37;;;;;;;1.58;1.45;;;26.20;1.00;;;;;;5039872;28;20528;-77
2021/06/12 09:57:03;;;;;;;1.58;1.38;;;26.60;99.90;;;;;;5042648;28;20033;-78
2021/06/12 09:59:38;;;;;;;2.78;1.63;;;26.50;99.90;;;;;;5038089;28;20401;-75
2021/06/12 10:02:03;;;;;;;1.90;1.55;;;26.70;99.90;;;;;;5049144;28;20480;-75
2021/06/12 10:04:29;;;;;;;3.53;1.65;;;26.40;99.90;;;;;;5044935;28;20080;-75
2021/06/12 10:06:55;;;;;;;2.30;1.77;;;26.40;99.90;;;;;;5037842;28;20025;-77
2021/06/12 10:09:22;;;;;;;1.70;1.60;;;26.80;99.90;;;;;;5035227;28;20036;-76
2021/06/12 10:11:48;;;;;;;1.33;1.10;;;26.90;99.90;;;;;;5035569;28;20030;-76
2021/06/12 10:14:14;;;;;;;2.65;1.40;;;27.30;99.90;;;;;;5048882;28;20508;-76
2021/06/12 10:16:41;;;;;;;2.20;1.90;;;27.40;99.90;;;;;;5040227;28;20474;-75
2021/06/12 10:19:08;;;;;;;1.52;1.42;;;27.10;74.70;;;;;;5043659;28;20041;-75
2021/06/12 10:21:34;;;;;;;1.73;1.60;;;27.30;94.70;;;;;;5054293;28;20024;-76
2021/06/12 10:24:05;;;;;;;2.25;1.40;;;27.30;64.00;;;;;;5051757;28;20432;-74
2021/06/12 10:26:30;;;;;;;;;;;27.20;23.30;;;;;;5054664;28;20367;-77
2021/06/12 10:28:56;;;;;;;2.05;1.52;;;27.10;36.60;;;;;;5048919;28;19909;-76
2021/06/12 10:31:24;;;;;;;1.85;1.63;;;27.00;8.30;;;;;;5050073;28;20025;-79
2021/06/12 10:33:55;;;;;;;3.28;1.90;;;26.80;10.10;;;;;;5060879;28;20033;-78
2021/06/12 10:36:26;;;;;;;1.52;1.42;;;26.80;9.60;;;;;;5059218;28;20505;-78
2021/06/12 10:38:52;;;;;;;3.15;1.90;;;26.70;20.90;;;;;;5062933;28;20050;-77
2021/06/12 10:41:27;;;;;;;3.08;1.60;;;27.30;11.60;;;;;;5043630;28;20029;-77
2021/06/12 10:43:59;;;;;;;2.45;1.50;;;27.40;1.00;;;;;;5051652;28;20017;-76
2021/06/12 10:46:26;;;;;;;1.40;1.30;;;27.30;1.00;;;;;;5044952;28;20384;-76
2021/06/12 10:48:55;;;;;;;3.30;1.60;;;27.60;1.00;;;;;;5049883;28;20143;-77
2021/06/12 10:51:27;;;;;;;2.63;1.88;;;27.50;1.00;;;;;;5040480;28;20025;-76
2021/06/12 10:54:07;;;;;;;2.10;1.90;;;27.60;1.00;;;;;;5041080;28;20026;-77
2021/06/12 10:56:38;;;;;;;1.70;1.60;;;27.70;1.00;;;;;;5034542;28;20033;-76
2021/06/12 10:59:04;;;;;;;2.05;1.77;;;27.90;1.00;;;;;;5051743;28;20039;-78
2021/06/12 11:01:30;;;;;;;3.60;1.85;;;27.30;1.00;;;;;;5055205;28;20033;-76
2021/06/12 11:04:17;;;;;;;1.88;1.77;;;27.30;1.00;;;;;;5047853;28;20025;-77
2021/06/12 11:06:53;;;;;;;1.70;1.60;;;27.40;1.00;;;;;;5040526;28;20029;-76
2021/06/12 11:09:35;;;;;;;2.20;1.80;;;27.20;1.00;;;;;;5038740;28;20504;-76
2021/06/12 11:12:02;;;;;;;2.40;2.00;;;27.30;1.00;;;;;;5043800;28;20033;-76
2021/06/12 11:14:31;;;;;;;3.05;2.00;;;26.80;1.00;;;;;;5034784;28;20113;-76
2021/06/12 11:17:09;;;;;;;5.07;1.85;;;27.00;1.00;;;;;;5047371;28;20040;-76
2021/06/12 11:19:45;;;;;;;1.98;1.80;;;27.00;1.00;;;;;;5045000;28;20538;-78
2021/06/12 11:22:40;;;;;;;2.03;1.80;;;26.90;1.00;;;;;;5036559;28;20029;-74
2021/06/12 11:25:09;;;;;;;2.17;1.95;;;27.20;1.00;;;;;;5043894;28;20449;-76
2021/06/12 11:27:40;;;;;;;2.58;2.15;;;27.50;1.00;;;;;;5039845;28;20397;-77
2021/06/12 11:30:12;;;;;;;;;;;27.50;1.00;;;;;;5037115;28;20063;-76
2021/06/12 11:32:40;;;;;;;2.90;1.67;;;27.50;1.00;;;;;;5033571;28;19936;-76
2021/06/12 11:35:06;;;;;;;3.10;1.80;;;27.50;1.00;;;;;;5035632;28;20022;-78
2021/06/12 11:37:32;;;;;;;1.88;1.73;;;27.50;1.00;;;;;;5052709;28;20025;-78
2021/06/12 11:40:07;;;;;;;1.60;1.50;;;27.80;99.90;;;;;;5037835;28;20029;-77
2021/06/12 11:42:42;;;;;;;4.80;1.52;;;27.80;99.90;;;;;;5053045;28;20033;-81
2021/06/12 11:45:37;;;;;;;5.53;1.70;;;27.50;99.90;;;;;;5045640;28;20108;-77
2021/06/12 11:48:21;;;;;;;6.60;2.78;;;27.20;99.90;;;;;;5046760;28;20095;-78
2021/06/12 11:50:49;;;;;;;5.32;1.80;;;27.40;99.90;;;;;;5055133;28;20089;-80
2021/06/12 11:53:17;;;;;;;2.42;1.70;;;27.40;99.90;;;;;;5052325;28;20088;-80
2021/06/12 11:55:43;;;;;;;3.38;1.80;;;27.50;99.90;;;;;;5057649;28;20053;-80
2021/06/12 11:58:10;;;;;;;2.80;1.67;;;27.20;99.90;;;;;;5059082;28;20037;-77
2021/06/12 12:00:38;;;;;;;1.85;1.70;;;27.60;99.90;;;;;;5053904;28;20041;-80
2021/06/12 12:03:11;;;;;;;1.52;1.40;;;27.50;99.90;;;;;;5061856;28;20028;-78
2021/06/12 12:05:37;;;;;;;2.95;1.42;;;27.40;99.90;;;;;;5058345;28;20017;-78
2021/06/12 12:08:07;;;;;;;3.47;1.75;;;27.20;99.90;;;;;;5069055;28;20151;-78
2021/06/12 12:10:33;;;;;;;1.40;1.30;;;27.70;99.90;;;;;;5056295;28;20029;-80
2021/06/12 12:12:59;;;;;;;6.72;1.38;;;27.90;99.90;;;;;;5054658;28;20021;-78
2021/06/12 12:15:36;;;;;;;2.05;1.25;;;28.00;99.90;;;;;;5052168;28;20022;-79
2021/06/12 12:18:07;;;;;;;2.20;1.20;;;27.90;99.90;;;;;;5060583;28;20021;-78
2021/06/12 12:20:38;;;;;;;2.15;1.08;;;27.80;99.90;;;;;;5053947;28;20052;-78
2021/06/12 12:23:24;;;;;;;1.70;1.40;;;27.60;99.90;;;;;;5049096;28;20053;-78
2021/06/12 12:26:03;;;;;;;1.80;1.20;;;27.50;99.90;;;;;;5068342;28;20056;-76
2021/06/12 12:28:28;;;;;;;2.35;1.00;;;27.30;99.90;;;;;;5059710;28;20093;-78
2021/06/12 12:31:08;;;;;;;1.58;1.40;;;27.20;99.90;;;;;;5067051;28;20030;-76
2021/06/12 12:33:45;;;;;;;2.10;1.45;;;27.50;99.90;;;;;;5069138;28;20032;-77
2021/06/12 12:36:11;;;;;;;2.47;1.10;;;27.90;99.90;;;;;;5066065;28;20026;-78
2021/06/12 12:38:39;;;;;;;5.00;1.20;;;27.80;99.90;;;;;;5069274;28;20021;-77
2021/06/12 12:41:07;;;;;;;2.55;1.60;;;27.70;99.90;;;;;;5073363;28;20024;-78
2021/06/12 12:43:33;;;;;;;3.75;1.50;;;27.80;99.90;;;;;;5072430;28;20094;-79
2021/06/12 12:45:59;;;;;;;2.92;1.45;;;27.90;99.90;;;;;;5067470;28;20018;-77
2021/06/12 12:48:25;;;;;;;1.27;1.10;;;27.60;99.90;;;;;;5070173;28;20033;-76
2021/06/12 12:50:51;;;;;;;2.78;1.60;;;27.60;99.90;;;;;;5055477;28;20033;-78
2021/06/12 12:53:21;;;;;;;2.50;1.30;;;27.30;99.90;;;;;;5056024;28;20084;-77